sensor_id;sensor_type;location;lat;lon;timestamp;P1;durP1;ratioP1;P2;durP2;ratioP2
50954;SDS011;36966;48.064;-0.792;2022-10-16T00:00:57;2.03;;;0.50;;
50954;SDS011;36966;48.064;-0.792;2022-10-16T00:03:16;5.90;;;0.40;;
50954;SDS011;36966;48.064;-0.792;2022-10-16T00:05:42;2.25;;;0.45;;
50954;SDS011;36966;48.064;-0.792;2022-10-16T00:08:03;2.70;;;0.73;;
50954;SDS011;36966;48.064;-0.792;2022-10-16T00:10:22;1.92;;;0.50;;
50954;SDS011;36966;48.064;-0.792;2022-10-16T00:12:42;3.40;;;0.80;;
50954;SDS011;36966;48.064;-0.792;2022-10-16T00:15:01;1.60;;;0.52;;
50954;SDS011;36966;48.064;-0.792;2022-10-16T00:17:21;3.45;;;0.70;;
50954;SDS011;36966;48.064;-0.792;2022-10-16T00:19:40;1.88;;;0.50;;
50954;SDS011;36966;48.064;-0.792;2022-10-16T00:21:59;2.83;;;0.85;;
50954;SDS011;36966;48.064;-0.792;2022-10-16T00:24:18;2.55;;;0.52;;
50954;SDS011;36966;48.064;-0.792;2022-10-16T00:26:38;1.00;;;0.50;;
50954;SDS011;36966;48.064;-0.792;2022-10-16T00:28:58;2.97;;;0.38;;
50954;SDS011;36966;48.064;-0.792;2022-10-16T00:31:18;1.92;;;0.88;;
50954;SDS011;36966;48.064;-0.792;2022-10-16T00:33:40;1.35;;;0.60;;
50954;SDS011;36966;48.064;-0.792;2022-10-16T00:36:00;2.72;;;0.60;;
50954;SDS011;36966;48.064;-0.792;2022-10-16T00:38:20;2.75;;;0.63;;
50954;SDS011;36966;48.064;-0.792;2022-10-16T00:40:40;2.22;;;0.70;;
50954;SDS011;36966;48.064;-0.792;2022-10-16T00:42:59;2.25;;;0.40;;
50954;SDS011;36966;48.064;-0.792;2022-10-16T00:45:18;3.00;;;0.47;;
50954;SDS011;36966;48.064;-0.792;2022-10-16T00:47:42;1.70;;;0.50;;
50954;SDS011;36966;48.064;-0.792;2022-10-16T00:50:18;1.60;;;0.40;;
50954;SDS011;36966;48.064;-0.792;2022-10-16T00:52:49;2.97;;;0.63;;
50954;SDS011;36966;48.064;-0.792;2022-10-16T00:55:09;1.73;;;0.60;;
50954;SDS011;36966;48.064;-0.792;2022-10-16T00:57:28;1.13;;;0.65;;
50954;SDS011;36966;48.064;-0.792;2022-10-16T00:59:48;2.28;;;0.50;;
50954;SDS011;36966;48.064;-0.792;2022-10-16T01:02:08;0.73;;;0.30;;
50954;SDS011;36966;48.064;-0.792;2022-10-16T01:04:37;2.45;;;0.40;;
50954;SDS011;36966;48.064;-0.792;2022-10-16T01:07:02;3.67;;;0.50;;
50954;SDS011;36966;48.064;-0.792;2022-10-16T01:17:01;1.25;;;0.30;;
50954;SDS011;36966;48.064;-0.792;2022-10-16T01:19:27;1.75;;;0.38;;
50954;SDS011;36966;48.064;-0.792;2022-10-16T01:22:03;1.98;;;0.90;;
50954;SDS011;36966;48.064;-0.792;2022-10-16T01:24:32;3.53;;;0.60;;
50954;SDS011;36966;48.064;-0.792;2022-10-16T01:27:05;3.35;;;0.73;;
50954;SDS011;36966;48.064;-0.792;2022-10-16T01:32:02;2.38;;;0.50;;
50954;SDS011;36966;48.064;-0.792;2022-10-16T01:34:32;8.27;;;3.58;;
50954;SDS011;36966;48.064;-0.792;2022-10-16T01:37:05;5.57;;;2.15;;
50954;SDS011;36966;48.064;-0.792;2022-10-16T01:39:31;4.28;;;1.00;;
50954;SDS011;36966;48.064;-0.792;2022-10-16T01:41:54;2.60;;;0.90;;
50954;SDS011;36966;48.064;-0.792;2022-10-16T01:44:20;5.60;;;0.73;;
50954;SDS011;36966;48.064;-0.792;2022-10-16T01:46:46;5.75;;;1.23;;
50954;SDS011;36966;48.064;-0.792;2022-10-16T01:49:08;1.65;;;0.80;;
50954;SDS011;36966;48.064;-0.792;2022-10-16T01:51:29;2.40;;;1.00;;
50954;SDS011;36966;48.064;-0.792;2022-10-16T01:53:53;3.72;;;0.73;;
50954;SDS011;36966;48.064;-0.792;2022-10-16T01:56:16;2.28;;;1.10;;
50954;SDS011;36966;48.064;-0.792;2022-10-16T01:58:42;1.77;;;0.73;;
50954;SDS011;36966;48.064;-0.792;2022-10-16T02:01:15;2.17;;;0.70;;
50954;SDS011;36966;48.064;-0.792;2022-10-16T02:03:36;0.90;;;0.50;;
50954;SDS011;36966;48.064;-0.792;2022-10-16T02:05:59;9.02;;;0.80;;
50954;SDS011;36966;48.064;-0.792;2022-10-16T02:08:19;2.25;;;0.50;;
50954;SDS011;36966;48.064;-0.792;2022-10-16T02:10:41;4.60;;;1.48;;
50954;SDS011;36966;48.064;-0.792;2022-10-16T02:13:12;1.85;;;0.70;;
50954;SDS011;36966;48.064;-0.792;2022-10-16T02:15:36;1.90;;;0.50;;
50954;SDS011;36966;48.064;-0.792;2022-10-16T02:17:56;3.08;;;0.50;;
50954;SDS011;36966;48.064;-0.792;2022-10-16T02:20:15;0.75;;;0.50;;
50954;SDS011;36966;48.064;-0.792;2022-10-16T02:22:39;1.60;;;0.68;;
50954;SDS011;36966;48.064;-0.792;2022-10-16T02:25:46;4.43;;;0.50;;
50954;SDS011;36966;48.064;-0.792;2022-10-16T02:27:56;6.15;;;0.60;;
50954;SDS011;36966;48.064;-0.792;2022-10-16T02:32:59;5.95;;;0.45;;
50954;SDS011;36966;48.064;-0.792;2022-10-16T02:35:21;3.35;;;0.90;;
50954;SDS011;36966;48.064;-0.792;2022-10-16T02:37:41;3.00;;;0.40;;
50954;SDS011;36966;48.064;-0.792;2022-10-16T02:40:01;2.22;;;1.23;;
50954;SDS011;36966;48.064;-0.792;2022-10-16T02:42:27;1.38;;;0.50;;
50954;SDS011;36966;48.064;-0.792;2022-10-16T02:44:51;0.60;;;0.40;;
50954;SDS011;36966;48.064;-0.792;2022-10-16T02:47:10;3.53;;;0.60;;
50954;SDS011;36966;48.064;-0.792;2022-10-16T02:49:30;2.08;;;0.40;;
50954;SDS011;36966;48.064;-0.792;2022-10-16T02:51:50;3.83;;;0.52;;
50954;SDS011;36966;48.064;-0.792;2022-10-16T02:54:09;1.30;;;0.50;;
50954;SDS011;36966;48.064;-0.792;2022-10-16T02:56:28;4.57;;;0.95;;
50954;SDS011;36966;48.064;-0.792;2022-10-16T02:58:48;3.72;;;0.88;;
50954;SDS011;36966;48.064;-0.792;2022-10-16T03:01:07;1.58;;;0.50;;
50954;SDS011;36966;48.064;-0.792;2022-10-16T03:03:27;2.20;;;0.80;;
50954;SDS011;36966;48.064;-0.792;2022-10-16T03:05:46;1.00;;;0.60;;
50954;SDS011;36966;48.064;-0.792;2022-10-16T03:08:05;1.23;;;0.65;;
50954;SDS011;36966;48.064;-0.792;2022-10-16T03:10:24;2.25;;;0.70;;
50954;SDS011;36966;48.064;-0.792;2022-10-16T03:12:44;4.32;;;0.73;;
50954;SDS011;36966;48.064;-0.792;2022-10-16T03:15:03;2.58;;;0.65;;
50954;SDS011;36966;48.064;-0.792;2022-10-16T03:17:24;2.60;;;0.63;;
50954;SDS011;36966;48.064;-0.792;2022-10-16T03:19:43;7.70;;;0.82;;
50954;SDS011;36966;48.064;-0.792;2022-10-16T03:22:03;1.35;;;0.45;;
50954;SDS011;36966;48.064;-0.792;2022-10-16T03:24:23;3.03;;;0.50;;
50954;SDS011;36966;48.064;-0.792;2022-10-16T03:26:42;2.28;;;1.00;;
50954;SDS011;36966;48.064;-0.792;2022-10-16T03:29:02;4.22;;;1.00;;
50954;SDS011;36966;48.064;-0.792;2022-10-16T03:31:21;1.40;;;0.73;;
50954;SDS011;36966;48.064;-0.792;2022-10-16T03:33:40;2.00;;;0.75;;
50954;SDS011;36966;48.064;-0.792;2022-10-16T03:35:59;3.10;;;0.80;;
50954;SDS011;36966;48.064;-0.792;2022-10-16T03:38:19;2.13;;;0.98;;
50954;SDS011;36966;48.064;-0.792;2022-10-16T03:40:38;1.75;;;0.60;;
50954;SDS011;36966;48.064;-0.792;2022-10-16T03:42:58;9.13;;;1.08;;
50954;SDS011;36966;48.064;-0.792;2022-10-16T03:45:17;2.60;;;1.17;;
50954;SDS011;36966;48.064;-0.792;2022-10-16T03:47:36;3.35;;;0.70;;
50954;SDS011;36966;48.064;-0.792;2022-10-16T03:49:56;2.90;;;0.80;;
50954;SDS011;36966;48.064;-0.792;2022-10-16T03:52:15;3.83;;;0.90;;
50954;SDS011;36966;48.064;-0.792;2022-10-16T03:54:35;5.68;;;1.80;;
50954;SDS011;36966;48.064;-0.792;2022-10-16T03:56:54;7.47;;;1.63;;
50954;SDS011;36966;48.064;-0.792;2022-10-16T03:59:13;5.40;;;1.35;;
50954;SDS011;36966;48.064;-0.792;2022-10-16T04:01:32;4.60;;;1.02;;
50954;SDS011;36966;48.064;-0.792;2022-10-16T04:03:52;3.58;;;1.23;;
50954;SDS011;36966;48.064;-0.792;2022-10-16T04:06:11;5.72;;;1.80;;
50954;SDS011;36966;48.064;-0.792;2022-10-16T04:08:30;2.75;;;1.15;;
50954;SDS011;36966;48.064;-0.792;2022-10-16T04:10:49;5.28;;;1.10;;
50954;SDS011;36966;48.064;-0.792;2022-10-16T04:13:08;2.70;;;1.00;;
50954;SDS011;36966;48.064;-0.792;2022-10-16T04:15:28;5.47;;;1.40;;
50954;SDS011;36966;48.064;-0.792;2022-10-16T04:17:47;1.70;;;1.08;;
50954;SDS011;36966;48.064;-0.792;2022-10-16T04:20:07;5.30;;;1.50;;
50954;SDS011;36966;48.064;-0.792;2022-10-16T04:22:27;2.92;;;1.20;;
50954;SDS011;36966;48.064;-0.792;2022-10-16T04:24:46;2.55;;;0.90;;
50954;SDS011;36966;48.064;-0.792;2022-10-16T04:27:05;1.83;;;0.90;;
50954;SDS011;36966;48.064;-0.792;2022-10-16T04:29:24;3.65;;;1.40;;
50954;SDS011;36966;48.064;-0.792;2022-10-16T04:31:43;4.68;;;1.30;;
50954;SDS011;36966;48.064;-0.792;2022-10-16T04:34:02;4.00;;;1.27;;
50954;SDS011;36966;48.064;-0.792;2022-10-16T04:36:21;4.15;;;1.30;;
50954;SDS011;36966;48.064;-0.792;2022-10-16T04:38:40;2.78;;;1.35;;
50954;SDS011;36966;48.064;-0.792;2022-10-16T04:41:00;5.15;;;1.40;;
50954;SDS011;36966;48.064;-0.792;2022-10-16T04:43:19;4.80;;;1.50;;
50954;SDS011;36966;48.064;-0.792;2022-10-16T04:45:39;2.60;;;1.70;;
50954;SDS011;36966;48.064;-0.792;2022-10-16T04:47:58;3.45;;;1.85;;
50954;SDS011;36966;48.064;-0.792;2022-10-16T04:50:18;6.85;;;1.50;;
50954;SDS011;36966;48.064;-0.792;2022-10-16T04:52:37;5.10;;;1.80;;
50954;SDS011;36966;48.064;-0.792;2022-10-16T04:54:56;6.35;;;2.22;;
50954;SDS011;36966;48.064;-0.792;2022-10-16T04:57:19;4.95;;;1.80;;
50954;SDS011;36966;48.064;-0.792;2022-10-16T04:59:38;2.25;;;1.20;;
50954;SDS011;36966;48.064;-0.792;2022-10-16T05:01:57;3.70;;;1.80;;
50954;SDS011;36966;48.064;-0.792;2022-10-16T05:04:16;2.92;;;1.88;;
50954;SDS011;36966;48.064;-0.792;2022-10-16T05:06:35;5.22;;;2.00;;
50954;SDS011;36966;48.064;-0.792;2022-10-16T05:08:57;2.63;;;1.77;;
50954;SDS011;36966;48.064;-0.792;2022-10-16T05:11:16;3.72;;;2.17;;
50954;SDS011;36966;48.064;-0.792;2022-10-16T05:13:35;5.07;;;2.28;;
50954;SDS011;36966;48.064;-0.792;2022-10-16T05:15:54;3.00;;;1.88;;
50954;SDS011;36966;48.064;-0.792;2022-10-16T05:18:14;2.90;;;1.92;;
50954;SDS011;36966;48.064;-0.792;2022-10-16T05:20:34;6.82;;;2.05;;
50954;SDS011;36966;48.064;-0.792;2022-10-16T05:22:53;2.28;;;1.38;;
50954;SDS011;36966;48.064;-0.792;2022-10-16T05:25:12;3.00;;;1.38;;
50954;SDS011;36966;48.064;-0.792;2022-10-16T05:27:31;6.13;;;1.67;;
50954;SDS011;36966;48.064;-0.792;2022-10-16T05:29:50;2.53;;;1.30;;
50954;SDS011;36966;48.064;-0.792;2022-10-16T05:32:10;5.25;;;1.50;;
50954;SDS011;36966;48.064;-0.792;2022-10-16T05:34:29;5.00;;;2.10;;
50954;SDS011;36966;48.064;-0.792;2022-10-16T05:36:48;6.28;;;2.17;;
50954;SDS011;36966;48.064;-0.792;2022-10-16T05:39:08;7.22;;;2.10;;
50954;SDS011;36966;48.064;-0.792;2022-10-16T05:41:27;5.22;;;1.73;;
50954;SDS011;36966;48.064;-0.792;2022-10-16T05:43:47;4.82;;;2.53;;
50954;SDS011;36966;48.064;-0.792;2022-10-16T05:46:07;3.03;;;1.85;;
50954;SDS011;36966;48.064;-0.792;2022-10-16T05:48:27;3.45;;;1.83;;
50954;SDS011;36966;48.064;-0.792;2022-10-16T05:50:47;5.57;;;2.38;;
50954;SDS011;36966;48.064;-0.792;2022-10-16T05:53:06;5.65;;;1.70;;
50954;SDS011;36966;48.064;-0.792;2022-10-16T05:55:25;2.35;;;1.55;;
50954;SDS011;36966;48.064;-0.792;2022-10-16T05:57:44;7.22;;;1.60;;
50954;SDS011;36966;48.064;-0.792;2022-10-16T06:00:04;6.82;;;1.73;;
50954;SDS011;36966;48.064;-0.792;2022-10-16T06:02:24;6.30;;;1.05;;
50954;SDS011;36966;48.064;-0.792;2022-10-16T06:04:44;5.68;;;1.88;;
50954;SDS011;36966;48.064;-0.792;2022-10-16T06:07:03;5.97;;;1.55;;
50954;SDS011;36966;48.064;-0.792;2022-10-16T06:09:21;4.55;;;1.17;;
50954;SDS011;36966;48.064;-0.792;2022-10-16T06:11:40;3.30;;;1.08;;
50954;SDS011;36966;48.064;-0.792;2022-10-16T06:14:00;3.33;;;1.48;;
50954;SDS011;36966;48.064;-0.792;2022-10-16T06:16:25;4.50;;;1.23;;
50954;SDS011;36966;48.064;-0.792;2022-10-16T06:18:45;2.30;;;1.40;;
50954;SDS011;36966;48.064;-0.792;2022-10-16T06:21:08;7.28;;;1.58;;
50954;SDS011;36966;48.064;-0.792;2022-10-16T06:23:35;11.75;;;1.70;;
50954;SDS011;36966;48.064;-0.792;2022-10-16T06:25:54;4.75;;;1.75;;
50954;SDS011;36966;48.064;-0.792;2022-10-16T06:28:23;3.30;;;1.25;;
50954;SDS011;36966;48.064;-0.792;2022-10-16T06:30:42;3.88;;;1.33;;
50954;SDS011;36966;48.064;-0.792;2022-10-16T06:33:02;4.47;;;1.60;;
50954;SDS011;36966;48.064;-0.792;2022-10-16T06:35:21;2.35;;;1.25;;
50954;SDS011;36966;48.064;-0.792;2022-10-16T06:37:40;3.42;;;1.17;;
50954;SDS011;36966;48.064;-0.792;2022-10-16T06:39:59;5.90;;;1.15;;
50954;SDS011;36966;48.064;-0.792;2022-10-16T06:42:19;2.33;;;1.10;;
50954;SDS011;36966;48.064;-0.792;2022-10-16T06:44:38;6.43;;;1.30;;
50954;SDS011;36966;48.064;-0.792;2022-10-16T06:46:57;3.65;;;1.65;;
50954;SDS011;36966;48.064;-0.792;2022-10-16T06:49:16;2.35;;;1.02;;
50954;SDS011;36966;48.064;-0.792;2022-10-16T06:51:41;2.55;;;1.50;;
50954;SDS011;36966;48.064;-0.792;2022-10-16T06:54:00;2.92;;;1.27;;
50954;SDS011;36966;48.064;-0.792;2022-10-16T06:56:21;3.33;;;2.05;;
50954;SDS011;36966;48.064;-0.792;2022-10-16T06:58:44;3.67;;;1.20;;
50954;SDS011;36966;48.064;-0.792;2022-10-16T07:01:05;2.08;;;1.15;;
50954;SDS011;36966;48.064;-0.792;2022-10-16T07:03:25;1.90;;;1.05;;
50954;SDS011;36966;48.064;-0.792;2022-10-16T07:05:44;3.50;;;1.27;;
50954;SDS011;36966;48.064;-0.792;2022-10-16T07:08:04;5.78;;;1.70;;
50954;SDS011;36966;48.064;-0.792;2022-10-16T07:10:24;2.75;;;1.02;;
50954;SDS011;36966;48.064;-0.792;2022-10-16T07:12:44;2.60;;;1.15;;
50954;SDS011;36966;48.064;-0.792;2022-10-16T07:15:03;1.90;;;1.20;;
50954;SDS011;36966;48.064;-0.792;2022-10-16T07:17:23;4.70;;;0.95;;
50954;SDS011;36966;48.064;-0.792;2022-10-16T07:19:42;3.33;;;1.40;;
50954;SDS011;36966;48.064;-0.792;2022-10-16T07:22:01;4.45;;;1.30;;
50954;SDS011;36966;48.064;-0.792;2022-10-16T07:24:22;2.42;;;1.33;;
50954;SDS011;36966;48.064;-0.792;2022-10-16T07:26:42;4.97;;;1.50;;
50954;SDS011;36966;48.064;-0.792;2022-10-16T07:29:03;2.80;;;1.58;;
50954;SDS011;36966;48.064;-0.792;2022-10-16T07:31:22;6.47;;;0.85;;
50954;SDS011;36966;48.064;-0.792;2022-10-16T07:33:42;4.00;;;0.93;;
50954;SDS011;36966;48.064;-0.792;2022-10-16T07:36:04;2.75;;;1.65;;
50954;SDS011;36966;48.064;-0.792;2022-10-16T07:38:23;3.78;;;0.80;;
50954;SDS011;36966;48.064;-0.792;2022-10-16T07:40:43;1.17;;;0.73;;
50954;SDS011;36966;48.064;-0.792;2022-10-16T07:43:03;2.35;;;0.77;;
50954;SDS011;36966;48.064;-0.792;2022-10-16T07:45:24;4.30;;;0.85;;
50954;SDS011;36966;48.064;-0.792;2022-10-16T07:47:43;1.95;;;1.20;;
50954;SDS011;36966;48.064;-0.792;2022-10-16T07:50:02;2.20;;;1.02;;
50954;SDS011;36966;48.064;-0.792;2022-10-16T07:52:22;2.72;;;1.00;;
50954;SDS011;36966;48.064;-0.792;2022-10-16T07:54:41;2.67;;;1.25;;
50954;SDS011;36966;48.064;-0.792;2022-10-16T07:57:01;1.98;;;1.23;;
50954;SDS011;36966;48.064;-0.792;2022-10-16T07:59:20;3.13;;;1.15;;
50954;SDS011;36966;48.064;-0.792;2022-10-16T08:01:39;3.17;;;1.70;;
50954;SDS011;36966;48.064;-0.792;2022-10-16T08:04:00;4.63;;;0.95;;
50954;SDS011;36966;48.064;-0.792;2022-10-16T08:06:21;4.70;;;1.10;;
50954;SDS011;36966;48.064;-0.792;2022-10-16T08:08:41;2.88;;;1.50;;
50954;SDS011;36966;48.064;-0.792;2022-10-16T08:11:00;4.88;;;1.63;;
50954;SDS011;36966;48.064;-0.792;2022-10-16T08:13:22;3.25;;;1.42;;
50954;SDS011;36966;48.064;-0.792;2022-10-16T08:15:42;2.05;;;1.00;;
50954;SDS011;36966;48.064;-0.792;2022-10-16T08:18:03;4.25;;;0.70;;
50954;SDS011;36966;48.064;-0.792;2022-10-16T08:20:23;3.63;;;0.90;;
50954;SDS011;36966;48.064;-0.792;2022-10-16T08:22:43;1.45;;;0.90;;
50954;SDS011;36966;48.064;-0.792;2022-10-16T08:25:02;3.35;;;0.70;;
50954;SDS011;36966;48.064;-0.792;2022-10-16T08:27:22;1.15;;;0.60;;
50954;SDS011;36966;48.064;-0.792;2022-10-16T08:29:42;1.83;;;0.35;;
50954;SDS011;36966;48.064;-0.792;2022-10-16T08:32:03;3.70;;;0.75;;
50954;SDS011;36966;48.064;-0.792;2022-10-16T08:34:22;1.23;;;0.68;;
50954;SDS011;36966;48.064;-0.792;2022-10-16T08:36:42;1.17;;;0.65;;
50954;SDS011;36966;48.064;-0.792;2022-10-16T08:39:01;3.13;;;0.70;;
50954;SDS011;36966;48.064;-0.792;2022-10-16T08:46:49;2.28;;;0.70;;
50954;SDS011;36966;48.064;-0.792;2022-10-16T08:49:13;1.08;;;0.50;;
50954;SDS011;36966;48.064;-0.792;2022-10-16T08:51:33;0.52;;;0.40;;
50954;SDS011;36966;48.064;-0.792;2022-10-16T08:53:56;5.30;;;0.70;;
50954;SDS011;36966;48.064;-0.792;2022-10-16T08:56:17;1.90;;;0.60;;
50954;SDS011;36966;48.064;-0.792;2022-10-16T08:58:37;3.47;;;0.55;;
50954;SDS011;36966;48.064;-0.792;2022-10-16T09:00:58;2.97;;;0.43;;
50954;SDS011;36966;48.064;-0.792;2022-10-16T09:05:49;3.28;;;0.80;;
50954;SDS011;36966;48.064;-0.792;2022-10-16T09:13:50;5.93;;;0.57;;
50954;SDS011;36966;48.064;-0.792;2022-10-16T09:16:45;2.30;;;0.60;;
50954;SDS011;36966;48.064;-0.792;2022-10-16T09:19:30;3.25;;;0.57;;
50954;SDS011;36966;48.064;-0.792;2022-10-16T09:21:57;1.02;;;0.47;;
50954;SDS011;36966;48.064;-0.792;2022-10-16T09:24:21;6.32;;;0.50;;
50954;SDS011;36966;48.064;-0.792;2022-10-16T09:26:43;1.17;;;0.47;;
50954;SDS011;36966;48.064;-0.792;2022-10-16T09:29:03;3.40;;;0.40;;
50954;SDS011;36966;48.064;-0.792;2022-10-16T09:31:22;0.85;;;0.45;;
50954;SDS011;36966;48.064;-0.792;2022-10-16T09:33:42;0.65;;;0.38;;
50954;SDS011;36966;48.064;-0.792;2022-10-16T09:36:02;1.98;;;0.30;;
50954;SDS011;36966;48.064;-0.792;2022-10-16T09:38:27;1.40;;;0.30;;
50954;SDS011;36966;48.064;-0.792;2022-10-16T09:40:48;3.22;;;0.50;;
50954;SDS011;36966;48.064;-0.792;2022-10-16T09:45:36;4.40;;;0.65;;
50954;SDS011;36966;48.064;-0.792;2022-10-16T09:47:56;2.13;;;0.40;;
50954;SDS011;36966;48.064;-0.792;2022-10-16T09:52:45;0.93;;;0.30;;
50954;SDS011;36966;48.064;-0.792;2022-10-16T09:55:15;0.50;;;0.30;;
50954;SDS011;36966;48.064;-0.792;2022-10-16T09:57:36;2.13;;;0.30;;
50954;SDS011;36966;48.064;-0.792;2022-10-16T09:59:57;0.80;;;0.32;;
50954;SDS011;36966;48.064;-0.792;2022-10-16T10:02:18;0.47;;;0.30;;
50954;SDS011;36966;48.064;-0.792;2022-10-16T10:04:47;1.55;;;0.40;;
50954;SDS011;36966;48.064;-0.792;2022-10-16T10:07:20;1.45;;;0.43;;
50954;SDS011;36966;48.064;-0.792;2022-10-16T10:09:51;2.03;;;0.30;;
50954;SDS011;36966;48.064;-0.792;2022-10-16T10:14:48;2.08;;;0.30;;
50954;SDS011;36966;48.064;-0.792;2022-10-16T10:19:46;3.05;;;0.20;;
50954;SDS011;36966;48.064;-0.792;2022-10-16T10:27:36;0.43;;;0.10;;
50954;SDS011;36966;48.064;-0.792;2022-10-16T10:30:02;3.20;;;0.57;;
50954;SDS011;36966;48.064;-0.792;2022-10-16T10:32:44;2.40;;;0.32;;
50954;SDS011;36966;48.064;-0.792;2022-10-16T10:35:29;2.13;;;0.20;;
50954;SDS011;36966;48.064;-0.792;2022-10-16T10:38:20;2.28;;;0.20;;
50954;SDS011;36966;48.064;-0.792;2022-10-16T10:46:54;1.45;;;0.80;;
50954;SDS011;36966;48.064;-0.792;2022-10-16T11:02:21;1.25;;;0.22;;
50954;SDS011;36966;48.064;-0.792;2022-10-16T11:05:10;1.83;;;0.20;;
50954;SDS011;36966;48.064;-0.792;2022-10-16T11:07:58;0.77;;;0.13;;
50954;SDS011;36966;48.064;-0.792;2022-10-16T11:10:34;0.60;;;0.37;;
50954;SDS011;36966;48.064;-0.792;2022-10-16T11:13:09;2.15;;;0.20;;
50954;SDS011;36966;48.064;-0.792;2022-10-16T11:15:35;3.08;;;0.80;;
50954;SDS011;36966;48.064;-0.792;2022-10-16T11:18:16;2.60;;;0.20;;
50954;SDS011;36966;48.064;-0.792;2022-10-16T11:20:41;2.15;;;0.20;;
50954;SDS011;36966;48.064;-0.792;2022-10-16T11:25:43;0.73;;;0.25;;
50954;SDS011;36966;48.064;-0.792;2022-10-16T11:28:13;0.40;;;0.25;;
50954;SDS011;36966;48.064;-0.792;2022-10-16T11:33:46;1.52;;;0.30;;
50954;SDS011;36966;48.064;-0.792;2022-10-16T11:36:18;1.42;;;0.30;;
50954;SDS011;36966;48.064;-0.792;2022-10-16T11:43:58;1.13;;;0.10;;
50954;SDS011;36966;48.064;-0.792;2022-10-16T11:46:33;2.65;;;0.43;;
50954;SDS011;36966;48.064;-0.792;2022-10-16T11:56:52;0.90;;;0.20;;
50954;SDS011;36966;48.064;-0.792;2022-10-16T12:04:43;2.92;;;0.20;;
50954;SDS011;36966;48.064;-0.792;2022-10-16T12:07:09;1.65;;;0.20;;
50954;SDS011;36966;48.064;-0.792;2022-10-16T12:09:34;3.75;;;0.40;;
50954;SDS011;36966;48.064;-0.792;2022-10-16T12:11:59;0.75;;;0.35;;
50954;SDS011;36966;48.064;-0.792;2022-10-16T12:14:20;0.80;;;0.20;;
50954;SDS011;36966;48.064;-0.792;2022-10-16T12:19:42;0.50;;;0.20;;
50954;SDS011;36966;48.064;-0.792;2022-10-16T12:22:01;1.75;;;0.20;;
50954;SDS011;36966;48.064;-0.792;2022-10-16T12:24:39;1.58;;;0.20;;
50954;SDS011;36966;48.064;-0.792;2022-10-16T12:27:01;0.77;;;0.28;;
50954;SDS011;36966;48.064;-0.792;2022-10-16T12:31:49;0.38;;;0.20;;
50954;SDS011;36966;48.064;-0.792;2022-10-16T12:34:42;0.77;;;0.25;;
50954;SDS011;36966;48.064;-0.792;2022-10-16T12:37:18;0.47;;;0.20;;
50954;SDS011;36966;48.064;-0.792;2022-10-16T12:39:41;1.25;;;0.20;;
50954;SDS011;36966;48.064;-0.792;2022-10-16T12:42:02;0.68;;;0.20;;
50954;SDS011;36966;48.064;-0.792;2022-10-16T12:44:23;1.45;;;0.30;;
50954;SDS011;36966;48.064;-0.792;2022-10-16T12:46:44;0.98;;;0.20;;
50954;SDS011;36966;48.064;-0.792;2022-10-16T12:53:57;2.13;;;0.40;;
50954;SDS011;36966;48.064;-0.792;2022-10-16T12:56:24;0.88;;;0.60;;
50954;SDS011;36966;48.064;-0.792;2022-10-16T12:59:28;4.05;;;0.50;;
50954;SDS011;36966;48.064;-0.792;2022-10-16T13:12:06;0.22;;;0.20;;
50954;SDS011;36966;48.064;-0.792;2022-10-16T13:27:44;2.13;;;0.40;;
50954;SDS011;36966;48.064;-0.792;2022-10-16T13:30:20;1.38;;;0.20;;
50954;SDS011;36966;48.064;-0.792;2022-10-16T13:32:44;2.45;;;0.20;;
50954;SDS011;36966;48.064;-0.792;2022-10-16T13:35:19;0.47;;;0.15;;
50954;SDS011;36966;48.064;-0.792;2022-10-16T13:37:43;1.15;;;0.20;;
50954;SDS011;36966;48.064;-0.792;2022-10-16T13:40:18;0.60;;;0.10;;
50954;SDS011;36966;48.064;-0.792;2022-10-16T13:42:37;1.42;;;0.20;;
50954;SDS011;36966;48.064;-0.792;2022-10-16T13:44:56;0.98;;;0.20;;
50954;SDS011;36966;48.064;-0.792;2022-10-16T13:49:39;1.48;;;0.10;;
50954;SDS011;36966;48.064;-0.792;2022-10-16T13:51:59;1.27;;;0.10;;
50954;SDS011;36966;48.064;-0.792;2022-10-16T13:54:18;3.92;;;0.32;;
50954;SDS011;36966;48.064;-0.792;2022-10-16T13:56:38;0.30;;;0.17;;
50954;SDS011;36966;48.064;-0.792;2022-10-16T13:59:00;0.93;;;0.20;;
50954;SDS011;36966;48.064;-0.792;2022-10-16T14:01:23;0.20;;;0.10;;
50954;SDS011;36966;48.064;-0.792;2022-10-16T14:06:05;1.27;;;0.20;;
50954;SDS011;36966;48.064;-0.792;2022-10-16T14:08:30;0.98;;;0.28;;
50954;SDS011;36966;48.064;-0.792;2022-10-16T14:10:51;1.42;;;0.20;;
50954;SDS011;36966;48.064;-0.792;2022-10-16T14:13:14;0.98;;;0.20;;
50954;SDS011;36966;48.064;-0.792;2022-10-16T14:15:38;0.88;;;0.30;;
50954;SDS011;36966;48.064;-0.792;2022-10-16T14:17:58;0.50;;;0.25;;
50954;SDS011;36966;48.064;-0.792;2022-10-16T14:20:17;0.20;;;0.17;;
50954;SDS011;36966;48.064;-0.792;2022-10-16T14:22:38;0.63;;;0.30;;
50954;SDS011;36966;48.064;-0.792;2022-10-16T14:24:59;2.90;;;0.30;;
50954;SDS011;36966;48.064;-0.792;2022-10-16T14:27:33;2.70;;;0.30;;
50954;SDS011;36966;48.064;-0.792;2022-10-16T14:32:33;0.57;;;0.22;;
50954;SDS011;36966;48.064;-0.792;2022-10-16T14:34:53;1.70;;;0.40;;
50954;SDS011;36966;48.064;-0.792;2022-10-16T14:39:38;2.10;;;0.65;;
50954;SDS011;36966;48.064;-0.792;2022-10-16T14:41:59;1.35;;;0.57;;
50954;SDS011;36966;48.064;-0.792;2022-10-16T14:44:18;1.15;;;0.55;;
50954;SDS011;36966;48.064;-0.792;2022-10-16T14:46:41;1.65;;;0.60;;
50954;SDS011;36966;48.064;-0.792;2022-10-16T14:49:20;1.45;;;1.00;;
50954;SDS011;36966;48.064;-0.792;2022-10-16T14:51:42;1.67;;;0.60;;
50954;SDS011;36966;48.064;-0.792;2022-10-16T14:54:03;0.50;;;0.30;;
50954;SDS011;36966;48.064;-0.792;2022-10-16T14:56:24;0.95;;;0.50;;
50954;SDS011;36966;48.064;-0.792;2022-10-16T14:58:47;1.52;;;0.35;;
50954;SDS011;36966;48.064;-0.792;2022-10-16T15:01:09;5.18;;;0.30;;
50954;SDS011;36966;48.064;-0.792;2022-10-16T15:03:30;4.38;;;0.40;;
50954;SDS011;36966;48.064;-0.792;2022-10-16T15:05:49;0.80;;;0.40;;
50954;SDS011;36966;48.064;-0.792;2022-10-16T15:08:08;0.95;;;0.50;;
50954;SDS011;36966;48.064;-0.792;2022-10-16T15:10:28;4.88;;;0.47;;
50954;SDS011;36966;48.064;-0.792;2022-10-16T15:12:48;6.60;;;0.57;;
50954;SDS011;36966;48.064;-0.792;2022-10-16T15:15:25;1.42;;;0.45;;
50954;SDS011;36966;48.064;-0.792;2022-10-16T15:17:50;1.27;;;0.55;;
50954;SDS011;36966;48.064;-0.792;2022-10-16T15:20:19;2.83;;;0.32;;
50954;SDS011;36966;48.064;-0.792;2022-10-16T15:22:38;0.73;;;0.40;;
50954;SDS011;36966;48.064;-0.792;2022-10-16T15:24:57;0.45;;;0.40;;
50954;SDS011;36966;48.064;-0.792;2022-10-16T15:27:17;2.13;;;0.40;;
50954;SDS011;36966;48.064;-0.792;2022-10-16T15:29:36;0.70;;;0.40;;
50954;SDS011;36966;48.064;-0.792;2022-10-16T15:31:56;2.53;;;0.40;;
50954;SDS011;36966;48.064;-0.792;2022-10-16T15:34:15;1.35;;;0.47;;
50954;SDS011;36966;48.064;-0.792;2022-10-16T15:36:37;0.73;;;0.40;;
50954;SDS011;36966;48.064;-0.792;2022-10-16T15:38:57;2.55;;;1.20;;
50954;SDS011;36966;48.064;-0.792;2022-10-16T15:41:16;2.22;;;0.60;;
50954;SDS011;36966;48.064;-0.792;2022-10-16T15:43:36;1.63;;;0.60;;
50954;SDS011;36966;48.064;-0.792;2022-10-16T15:45:59;0.95;;;0.57;;
50954;SDS011;36966;48.064;-0.792;2022-10-16T15:48:20;1.85;;;0.70;;
50954;SDS011;36966;48.064;-0.792;2022-10-16T15:50:39;1.80;;;0.60;;
50954;SDS011;36966;48.064;-0.792;2022-10-16T15:52:59;4.75;;;0.80;;
50954;SDS011;36966;48.064;-0.792;2022-10-16T15:55:18;1.30;;;0.98;;
50954;SDS011;36966;48.064;-0.792;2022-10-16T15:57:37;1.45;;;0.63;;
50954;SDS011;36966;48.064;-0.792;2022-10-16T15:59:57;4.15;;;0.80;;
50954;SDS011;36966;48.064;-0.792;2022-10-16T16:02:16;1.63;;;0.60;;
50954;SDS011;36966;48.064;-0.792;2022-10-16T16:04:35;1.10;;;0.47;;
50954;SDS011;36966;48.064;-0.792;2022-10-16T16:06:54;3.72;;;0.60;;
50954;SDS011;36966;48.064;-0.792;2022-10-16T16:09:13;3.70;;;0.60;;
50954;SDS011;36966;48.064;-0.792;2022-10-16T16:11:33;0.98;;;0.60;;
50954;SDS011;36966;48.064;-0.792;2022-10-16T16:13:56;2.15;;;0.75;;